Time;durP1;ratioP1;P1;durP2;ratioP2;P2;SDS_P1;SDS_P2;PMS_P1;PMS_P2;Temp;Humidity;BMP_temperature;BMP_pressure;BME280_temperature;BME280_humidity;BME280_pressure;Samples;Min_cycle;Max_cycle;Signal;HPM_P1;HPM_P2
2022/04/25 00:01:33;;;;;;;9.13;4.30;;;7.70;99.90;;;;;;4867642;29;20247;-63
2022/04/25 00:04:03;;;;;;;9.30;3.97;;;7.70;99.90;;;;;;4862897;29;20256;-62
2022/04/25 00:06:31;;;;;;;7.80;4.60;;;7.70;99.90;;;;;;4871184;29;20246;-62
2022/04/25 00:09:01;;;;;;;8.80;4.77;;;7.70;99.90;;;;;;4872498;29;20324;-62
2022/04/25 00:11:29;;;;;;;10.80;5.30;;;7.60;99.90;;;;;;4872536;29;20245;-62
2022/04/25 00:13:57;;;;;;;9.60;4.40;;;7.70;99.90;;;;;;4867376;29;20240;-62
2022/04/25 00:16:25;;;;;;;7.00;4.03;;;7.70;99.90;;;;;;4874029;29;20320;-62
2022/04/25 00:18:53;;;;;;;8.67;4.60;;;7.70;99.90;;;;;;4873198;29;20325;-62
2022/04/25 00:21:22;;;;;;;7.33;4.00;;;7.80;99.90;;;;;;4870293;29;20242;-61
2022/04/25 00:23:50;;;;;;;8.43;4.47;;;7.80;99.90;;;;;;4873378;29;20326;-62
2022/04/25 00:26:19;;;;;;;10.07;4.63;;;7.80;99.90;;;;;;4867464;29;20618;-62
2022/04/25 00:28:47;;;;;;;7.73;4.43;;;7.80;99.90;;;;;;4862707;29;20696;-62
2022/04/25 00:31:15;;;;;;;8.07;4.50;;;7.70;99.90;;;;;;4867258;29;20737;-62
2022/04/25 00:33:44;;;;;;;10.67;4.57;;;7.70;99.90;;;;;;4863545;29;20761;-62
2022/04/25 00:36:12;;;;;;;5.80;4.33;;;7.70;99.90;;;;;;4870038;29;20238;-62
2022/04/25 00:38:40;;;;;;;9.83;5.10;;;7.60;99.90;;;;;;4877944;29;20261;-62
2022/04/25 00:41:09;;;;;;;9.60;4.73;;;7.60;99.90;;;;;;4870194;29;20264;-63
2022/04/25 00:43:38;;;;;;;8.57;4.80;;;7.60;99.90;;;;;;4864287;29;20730;-62
2022/04/25 00:46:07;;;;;;;7.37;4.30;;;7.60;99.90;;;;;;4870845;29;20249;-62
2022/04/25 00:48:35;;;;;;;6.97;4.67;;;7.70;99.90;;;;;;4869314;29;20601;-62
2022/04/25 00:51:03;;;;;;;8.27;4.40;;;7.60;99.90;;;;;;4866409;29;20330;-62
2022/04/25 00:53:31;;;;;;;7.70;5.00;;;7.60;99.90;;;;;;4865707;29;20721;-62
2022/04/25 00:56:00;;;;;;;9.77;5.33;;;7.60;99.90;;;;;;4867048;29;20239;-62
2022/04/25 00:58:28;;;;;;;8.87;5.27;;;7.50;99.90;;;;;;4861550;29;20250;-62
2022/04/25 01:00:58;;;;;;;9.57;5.50;;;7.60;99.90;;;;;;4870076;29;20341;-63
2022/04/25 01:03:26;;;;;;;8.67;4.27;;;7.50;99.90;;;;;;4861460;29;20320;-62
2022/04/25 01:05:54;;;;;;;8.23;4.73;;;7.50;99.90;;;;;;4867422;29;20266;-62
2022/04/25 01:08:23;;;;;;;7.97;4.77;;;7.50;99.90;;;;;;4875139;29;20678;-62
2022/04/25 01:10:51;;;;;;;11.00;4.90;;;7.50;99.90;;;;;;4869851;29;20234;-62
2022/04/25 01:13:19;;;;;;;8.13;4.50;;;7.50;99.90;;;;;;4868809;29;20238;-62
2022/04/25 01:15:47;;;;;;;7.93;4.73;;;7.50;99.90;;;;;;4868178;29;20648;-62
2022/04/25 01:18:16;;;;;;;7.50;4.97;;;7.40;99.90;;;;;;4873822;29;20241;-62
2022/04/25 01:20:45;;;;;;;8.53;4.37;;;7.40;99.90;;;;;;4866501;29;20603;-62
2022/04/25 01:28:51;;;;;;;8.73;4.37;;;7.50;99.90;;;;;;4863454;29;20702;-61
2022/04/25 01:31:19;;;;;;;6.33;4.23;;;7.40;99.90;;;;;;4869605;29;20242;-61
2022/04/25 01:33:48;;;;;;;8.93;4.73;;;7.40;99.90;;;;;;4872273;29;20239;-62
2022/04/25 01:36:16;;;;;;;7.07;4.30;;;7.50;99.90;;;;;;4866346;29;20242;-62
2022/04/25 01:38:45;;;;;;;7.33;4.40;;;7.40;99.90;;;;;;4866927;29;20334;-62
2022/04/25 01:41:13;;;;;;;9.00;4.53;;;7.40;99.90;;;;;;4871037;29;20741;-62
2022/04/25 01:43:42;;;;;;;7.53;4.13;;;7.40;99.90;;;;;;4865962;29;20710;-62
2022/04/25 01:46:10;;;;;;;7.37;4.33;;;7.50;99.90;;;;;;4870433;29;20333;-62
2022/04/25 01:48:38;;;;;;;7.87;4.40;;;7.40;99.90;;;;;;4866619;29;20324;-62
2022/04/25 01:51:06;;;;;;;11.50;4.60;;;7.40;99.90;;;;;;4869208;29;20771;-62
2022/04/25 01:53:34;;;;;;;9.90;4.60;;;7.30;99.90;;;;;;4873859;29;20231;-62
2022/04/25 01:56:04;;;;;;;6.43;4.93;;;7.30;99.90;;;;;;4866180;29;20246;-62
2022/04/25 01:58:32;;;;;;;9.03;4.67;;;7.30;99.90;;;;;;4860523;29;20245;-62
2022/04/25 02:01:00;;;;;;;9.70;4.37;;;7.30;99.90;;;;;;4865486;29;20250;-63
2022/04/25 02:03:31;;;;;;;8.10;4.20;;;7.30;99.90;;;;;;4867337;29;20242;-62
2022/04/25 02:05:59;;;;;;;6.63;4.17;;;7.30;99.90;;;;;;4869160;29;20244;-61
2022/04/25 02:08:27;;;;;;;6.20;3.60;;;7.30;99.90;;;;;;4874647;29;20297;-62
2022/04/25 02:13:42;;;;;;;10.03;4.60;;;7.20;99.90;;;;;;4867033;29;20238;-62
2022/04/25 02:16:11;;;;;;;5.33;3.77;;;7.20;99.90;;;;;;4868947;29;20254;-63
2022/04/25 02:18:40;;;;;;;7.80;4.30;;;7.20;99.90;;;;;;4866530;29;20564;-63
2022/04/25 02:21:08;;;;;;;7.40;4.10;;;7.30;99.90;;;;;;4867512;29;20657;-62
2022/04/25 02:23:37;;;;;;;8.97;4.07;;;7.30;99.90;;;;;;4863963;29;20321;-62
2022/04/25 02:26:05;;;;;;;8.07;4.13;;;7.40;99.90;;;;;;4871988;29;20371;-62
2022/04/25 02:28:34;;;;;;;5.63;4.10;;;7.40;99.90;;;;;;4860748;29;20235;-62
2022/04/25 02:31:04;;;;;;;6.57;3.90;;;7.40;99.90;;;;;;4869412;29;20263;-61
2022/04/25 02:33:33;;;;;;;7.43;4.40;;;7.40;99.90;;;;;;4874253;29;20246;-62
2022/04/25 02:36:04;;;;;;;9.73;4.13;;;7.40;99.90;;;;;;4868977;29;20233;-62
2022/04/25 02:38:33;;;;;;;6.23;3.60;;;7.30;99.90;;;;;;4874201;29;20241;-62
2022/04/25 02:41:06;;;;;;;8.03;3.93;;;7.30;99.90;;;;;;4868901;29;20246;-62
2022/04/25 02:43:36;;;;;;;7.40;3.40;;;7.20;99.90;;;;;;4865747;29;20241;-62
2022/04/25 02:46:08;;;;;;;7.67;3.70;;;7.20;99.90;;;;;;4868661;29;20250;-62
2022/04/25 02:48:37;;;;;;;6.10;3.47;;;7.20;99.90;;;;;;4866240;29;20245;-62
2022/04/25 02:51:08;;;;;;;5.50;3.53;;;7.20;99.90;;;;;;4868959;29;20260;-62
2022/04/25 02:53:36;;;;;;;5.20;3.10;;;7.20;99.90;;;;;;4875873;29;20234;-62
2022/04/25 02:56:05;;;;;;;8.07;3.90;;;7.20;99.90;;;;;;4868814;29;20248;-61
2022/04/25 02:58:35;;;;;;;5.77;3.53;;;7.20;99.90;;;;;;4873406;29;20643;-62
2022/04/25 03:01:05;;;;;;;10.00;3.60;;;7.30;99.90;;;;;;4865059;29;20257;-62
2022/04/25 03:03:35;;;;;;;6.47;3.70;;;7.20;99.90;;;;;;4860337;29;20715;-61
2022/04/25 03:06:06;;;;;;;6.23;3.47;;;7.20;99.90;;;;;;4865254;29;20257;-62
2022/04/25 03:08:35;;;;;;;8.10;3.63;;;7.20;99.90;;;;;;4860443;29;20325;-62
2022/04/25 03:11:05;;;;;;;6.73;3.33;;;7.10;99.90;;;;;;4868626;29;20246;-62
2022/04/25 03:13:35;;;;;;;6.30;3.53;;;7.10;99.90;;;;;;4867017;29;20243;-62
2022/04/25 03:16:04;;;;;;;5.73;3.43;;;7.20;99.90;;;;;;4872719;29;20253;-61
2022/04/25 03:18:34;;;;;;;8.30;3.90;;;7.10;99.90;;;;;;4869145;29;20252;-62
2022/04/25 03:21:02;;;;;;;5.57;3.13;;;7.10;99.90;;;;;;4868668;29;20295;-61
2022/04/25 03:23:30;;;;;;;7.37;3.03;;;7.20;99.90;;;;;;4864395;29;20238;-61
2022/04/25 03:25:58;;;;;;;4.97;2.93;;;7.10;99.90;;;;;;4868715;29;20329;-61
2022/04/25 03:28:27;;;;;;;5.93;3.20;;;7.10;99.90;;;;;;4862569;29;20245;-62
2022/04/25 03:30:55;;;;;;;6.87;2.93;;;7.20;99.90;;;;;;4873137;29;20255;-63
2022/04/25 03:33:23;;;;;;;7.27;3.30;;;7.20;99.90;;;;;;4877993;29;20249;-62
2022/04/25 03:35:52;;;;;;;6.47;3.63;;;7.10;99.90;;;;;;4867860;29;20265;-62
2022/04/25 03:38:21;;;;;;;9.87;3.67;;;7.00;99.90;;;;;;4865091;29;20265;-62
2022/04/25 03:40:49;;;;;;;7.00;3.10;;;7.00;99.90;;;;;;4868186;29;20317;-62
2022/04/25 03:43:17;;;;;;;8.30;3.23;;;7.10;99.90;;;;;;4870850;29;20784;-61
2022/04/25 03:45:45;;;;;;;6.90;3.10;;;7.00;99.90;;;;;;4869345;29;20381;-62
2022/04/25 03:48:13;;;;;;;6.77;3.03;;;7.00;99.90;;;;;;4873407;29;21267;-62
2022/04/25 03:50:42;;;;;;;7.53;2.93;;;7.00;99.90;;;;;;4868081;29;20317;-62
2022/04/25 03:53:12;;;;;;;5.57;3.00;;;7.00;99.90;;;;;;4866318;29;20261;-62
2022/04/25 03:58:27;;;;;;;5.27;3.07;;;7.00;99.90;;;;;;4864435;29;20634;-62
2022/04/25 04:00:55;;;;;;;4.53;2.90;;;7.00;99.90;;;;;;4871189;29;20234;-61
2022/04/25 04:03:24;;;;;;;6.80;2.80;;;7.00;99.90;;;;;;4864059;29;20389;-62
2022/04/25 04:05:53;;;;;;;5.37;2.70;;;6.90;99.90;;;;;;4871071;29;20234;-62
2022/04/25 04:08:23;;;;;;;8.77;3.30;;;6.90;99.90;;;;;;4865723;29;20271;-61
2022/04/25 04:10:51;;;;;;;4.60;2.77;;;6.90;99.90;;;;;;4871096;29;20269;-62
2022/04/25 04:13:19;;;;;;;7.23;2.63;;;6.90;99.90;;;;;;4877068;29;20249;-62
2022/04/25 04:15:47;;;;;;;7.20;3.20;;;7.00;99.90;;;;;;4869329;29;20333;-61
2022/04/25 04:18:15;;;;;;;5.03;3.07;;;7.00;99.90;;;;;;4872618;29;20621;-62
2022/04/25 04:20:43;;;;;;;6.10;2.87;;;7.00;99.90;;;;;;4867440;29;20239;-61
2022/04/25 04:23:12;;;;;;;8.47;2.97;;;6.90;99.90;;;;;;4865711;29;20645;-61
2022/04/25 04:25:41;;;;;;;6.90;3.00;;;6.90;99.90;;;;;;4869966;29;20230;-61
2022/04/25 04:28:09;;;;;;;6.10;2.73;;;6.90;99.90;;;;;;4878374;29;20253;-62
2022/04/25 04:30:37;;;;;;;7.13;3.20;;;6.90;99.90;;;;;;4876955;29;20316;-62
2022/04/25 04:33:06;;;;;;;6.47;3.17;;;6.90;99.90;;;;;;4870306;29;20273;-62
2022/04/25 04:38:20;;;;;;;5.87;2.70;;;6.90;99.90;;;;;;4860532;29;20238;-62
2022/04/25 04:40:49;;;;;;;5.80;2.87;;;6.80;99.90;;;;;;4870521;29;20245;-62
2022/04/25 04:43:17;;;;;;;5.10;3.10;;;6.90;99.90;;;;;;4871924;29;20242;-62
2022/04/25 04:45:45;;;;;;;6.37;3.20;;;6.90;99.90;;;;;;4867515;29;20621;-62
2022/04/25 04:48:13;;;;;;;5.93;3.20;;;7.00;99.90;;;;;;4866837;29;20729;-62
2022/04/25 04:50:43;;;;;;;5.20;3.00;;;6.90;99.90;;;;;;4877951;29;20265;-62
2022/04/25 04:53:11;;;;;;;6.20;3.50;;;6.90;99.90;;;;;;4877780;29;20297;-62
2022/04/25 04:55:39;;;;;;;5.77;2.80;;;6.90;99.90;;;;;;4866907;29;20238;-62
2022/04/25 04:58:09;;;;;;;6.77;2.93;;;7.00;99.90;;;;;;4864691;29;20244;-61
2022/04/25 05:00:37;;;;;;;7.07;2.97;;;7.00;99.90;;;;;;4874755;29;20253;-62
2022/04/25 05:03:05;;;;;;;6.67;3.13;;;7.10;99.90;;;;;;4869618;29;20766;-62
2022/04/25 05:05:33;;;;;;;8.60;3.40;;;7.20;99.90;;;;;;4860861;29;20325;-63
2022/04/25 05:08:03;;;;;;;6.17;2.90;;;7.30;99.90;;;;;;4872505;29;20248;-62
2022/04/25 05:10:31;;;;;;;6.53;3.73;;;7.40;99.90;;;;;;4876706;29;20242;-62
2022/04/25 05:12:59;;;;;;;8.27;3.00;;;7.50;99.90;;;;;;4871163;29;20265;-62
2022/04/25 05:15:29;;;;;;;4.80;2.93;;;7.60;99.90;;;;;;4875352;29;20238;-62
2022/04/25 05:17:59;;;;;;;4.23;2.63;;;7.60;99.90;;;;;;4867898;29;20264;-63
2022/04/25 05:20:27;;;;;;;12.17;3.27;;;7.70;99.90;;;;;;4870083;29;20320;-62
2022/04/25 05:22:55;;;;;;;4.10;2.50;;;7.60;99.90;;;;;;4876871;29;20321;-62
2022/04/25 05:25:25;;;;;;;6.97;3.07;;;7.70;99.90;;;;;;4875825;29;20715;-62
2022/04/25 05:27:55;;;;;;;4.43;2.70;;;7.70;99.90;;;;;;4868190;29;20301;-62
2022/04/25 05:30:25;;;;;;;4.17;3.07;;;7.70;99.90;;;;;;4868339;29;20246;-62
2022/04/25 05:32:55;;;;;;;4.90;2.63;;;7.80;99.90;;;;;;4872748;29;20255;-63
2022/04/25 05:35:26;;;;;;;6.07;2.80;;;7.80;99.90;;;;;;4867549;29;20252;-62
2022/04/25 05:37:54;;;;;;;4.33;2.90;;;8.00;99.90;;;;;;4875017;29;20272;-62
2022/04/25 05:40:23;;;;;;;8.20;2.93;;;8.20;99.90;;;;;;4868483;29;20306;-62
2022/04/25 05:42:53;;;;;;;5.63;2.97;;;8.20;99.90;;;;;;4872003;29;20372;-62
2022/04/25 05:45:22;;;;;;;5.57;2.80;;;8.20;99.90;;;;;;4874648;29;20241;-63
2022/04/25 05:47:54;;;;;;;4.83;2.50;;;8.20;99.90;;;;;;4871927;29;20241;-62
2022/04/25 05:53:11;;;;;;;5.73;2.53;;;8.20;99.90;;;;;;4876591;29;20246;-62
2022/04/25 05:55:41;;;;;;;4.17;2.67;;;8.40;99.90;;;;;;4866022;29;20254;-62
2022/04/25 05:58:10;;;;;;;4.17;2.50;;;8.60;99.90;;;;;;4860264;29;20306;-62
2022/04/25 06:00:38;;;;;;;3.77;3.07;;;8.50;99.90;;;;;;4873076;29;20331;-62
2022/04/25 06:03:06;;;;;;;6.13;2.50;;;8.30;99.90;;;;;;4862480;29;20242;-61
2022/04/25 06:05:37;;;;;;;4.53;2.30;;;8.40;99.90;;;;;;4866058;29;20591;-62
2022/04/25 06:08:05;;;;;;;4.27;2.37;;;8.30;99.90;;;;;;4858431;29;20699;-62
2022/04/25 06:10:34;;;;;;;6.13;2.57;;;8.50;99.90;;;;;;4866971;29;20237;-62
2022/04/25 06:13:02;;;;;;;4.37;2.13;;;8.80;99.90;;;;;;4870022;29;20243;-62
2022/04/25 06:15:30;;;;;;;3.57;2.80;;;8.90;99.90;;;;;;4866673;29;20750;-61
2022/04/25 06:17:58;;;;;;;5.07;2.70;;;9.10;99.90;;;;;;4875699;29;20312;-62
2022/04/25 06:20:30;;;;;;;6.17;2.70;;;9.00;99.90;;;;;;4863084;29;20248;-62
2022/04/25 06:23:02;;;;;;;4.17;2.20;;;9.00;99.90;;;;;;4876501;29;20646;-62
2022/04/25 06:25:31;;;;;;;4.13;2.33;;;9.30;99.90;;;;;;4868376;29;20565;-62
2022/04/25 06:28:00;;;;;;;5.83;2.67;;;9.20;99.90;;;;;;4875260;29;20694;-62
2022/04/25 06:30:29;;;;;;;4.57;2.50;;;9.10;99.90;;;;;;4867041;29;20250;-62
2022/04/25 06:32:59;;;;;;;4.03;2.20;;;9.30;99.90;;;;;;4868764;29;20601;-61
2022/04/25 06:35:27;;;;;;;6.73;2.97;;;9.40;99.90;;;;;;4866412;29;20242;-63
2022/04/25 06:37:56;;;;;;;3.80;2.60;;;9.40;99.90;;;;;;4875789;29;20234;-62
2022/04/25 06:40:25;;;;;;;5.97;2.60;;;9.50;99.90;;;;;;4872689;29;20773;-62
2022/04/25 06:42:55;;;;;;;5.23;2.70;;;9.50;99.90;;;;;;4869179;29;20250;-63
2022/04/25 06:45:23;;;;;;;2.87;2.50;;;9.80;99.90;;;;;;4866869;29;20732;-62
2022/04/25 06:47:53;;;;;;;4.07;2.50;;;10.00;99.90;;;;;;4872372;29;20242;-62
2022/04/25 06:50:21;;;;;;;3.23;2.77;;;10.20;99.90;;;;;;4875715;29;20587;-62
2022/04/25 06:52:49;;;;;;;4.07;2.60;;;10.40;99.90;;;;;;4879873;29;20331;-62
2022/04/25 06:55:18;;;;;;;6.77;3.00;;;10.50;99.90;;;;;;4870414;29;20665;-62
2022/04/25 06:57:47;;;;;;;4.53;2.57;;;10.80;99.90;;;;;;4880040;29;20326;-62
2022/04/25 07:00:19;;;;;;;6.03;3.00;;;10.90;99.90;;;;;;4871515;29;20653;-62
2022/04/25 07:03:04;;;;;;;3.67;2.40;;;10.90;99.90;;;;;;4871954;29;20704;-63
2022/04/25 07:05:33;;;;;;;4.07;2.60;;;11.10;99.90;;;;;;4868617;29;20365;-61
2022/04/25 07:08:01;;;;;;;3.97;2.70;;;11.10;99.90;;;;;;4872869;29;20251;-61
2022/04/25 07:10:29;;;;;;;6.17;2.43;;;11.20;99.90;;;;;;4869961;29;20248;-62
2022/04/25 07:12:59;;;;;;;4.63;2.20;;;11.20;99.90;;;;;;4879734;29;20629;-62
2022/04/25 07:15:29;;;;;;;5.83;2.70;;;11.30;99.90;;;;;;4870987;29;20305;-62
2022/04/25 07:18:00;;;;;;;5.03;2.60;;;11.30;99.90;;;;;;4870277;29;20704;-62
2022/04/25 07:20:28;;;;;;;4.90;2.70;;;11.70;99.90;;;;;;4876343;29;20246;-62
2022/04/25 07:29:14;;;;;;;4.43;2.70;;;11.70;99.90;;;;;;4860886;29;20267;-63
2022/04/25 07:31:52;;;;;;;5.80;2.70;;;12.10;99.90;;;;;;4866308;29;20241;-62
2022/04/25 07:34:45;;;;;;;4.07;2.57;;;12.20;99.90;;;;;;4866343;29;20773;-62
2022/04/25 07:37:42;;;;;;;3.20;2.33;;;12.20;99.90;;;;;;4860380;29;20257;-62
2022/04/25 07:40:15;;;;;;;3.20;2.30;;;12.20;99.90;;;;;;4873899;29;20245;-62
2022/04/25 07:42:43;;;;;;;4.97;2.40;;;12.00;99.90;;;;;;4860688;29;20246;-62
2022/04/25 07:45:14;;;;;;;6.03;2.43;;;12.30;99.90;;;;;;4875887;29;20244;-62
2022/04/25 07:47:45;;;;;;;4.33;2.40;;;12.40;99.90;;;;;;4869647;29;20236;-62
2022/04/25 07:50:23;;;;;;;4.63;2.70;;;12.40;99.90;;;;;;4879091;29;20292;-62
2022/04/25 07:52:58;;;;;;;4.50;2.70;;;12.40;99.90;;;;;;4865052;29;20240;-62
2022/04/25 07:55:26;;;;;;;3.70;2.60;;;12.50;99.90;;;;;;4871727;29;20236;-62
2022/04/25 07:57:56;;;;;;;7.30;2.50;;;12.70;99.90;;;;;;4860738;29;20310;-62
2022/04/25 08:00:56;;;;;;;6.70;2.73;;;12.70;99.90;;;;;;4867477;29;20395;-62
2022/04/25 08:03:29;;;;;;;4.73;2.40;;;12.60;99.90;;;;;;4862419;29;20244;-62
2022/04/25 08:05:57;;;;;;;3.27;2.43;;;12.90;99.90;;;;;;4846935;29;20635;-64
2022/04/25 08:08:25;;;;;;;5.40;2.70;;;13.00;99.90;;;;;;4873805;29;20598;-62
2022/04/25 08:10:53;;;;;;;5.80;2.60;;;13.40;99.90;;;;;;4867036;29;21865;-62
2022/04/25 08:18:53;;;;;;;5.80;2.60;;;13.80;99.90;;;;;;4856422;29;20253;-62
2022/04/25 08:21:22;;;;;;;4.17;2.63;;;13.90;99.90;;;;;;4860152;29;20270;-62
2022/04/25 08:23:50;;;;;;;5.20;2.60;;;13.80;99.90;;;;;;4856616;29;20244;-62
2022/04/25 08:26:19;;;;;;;5.00;2.90;;;14.00;99.90;;;;;;4841515;29;20321;-62
2022/04/25 08:28:47;;;;;;;4.40;2.87;;;14.00;99.90;;;;;;4848862;29;20246;-62
2022/04/25 08:31:33;;;;;;;4.83;2.67;;;14.10;99.90;;;;;;4853459;29;20246;-62
2022/04/25 08:34:02;;;;;;;4.00;2.47;;;14.40;99.90;;;;;;4849695;29;20325;-62
2022/04/25 08:36:31;;;;;;;4.20;2.57;;;14.80;99.90;;;;;;4862265;29;20275;-63
2022/04/25 08:39:00;;;;;;;5.43;2.77;;;15.20;99.90;;;;;;4872732;29;20245;-62
2022/04/25 08:41:31;;;;;;;5.27;2.50;;;15.30;99.90;;;;;;4870153;29;20563;-63
2022/04/25 08:44:00;;;;;;;4.60;2.97;;;15.30;99.90;;;;;;4872167;29;20649;-62
2022/04/25 08:46:31;;;;;;;4.97;2.70;;;15.20;99.90;;;;;;4873634;29;21331;-62
2022/04/25 08:49:03;;;;;;;6.37;2.80;;;15.40;99.90;;;;;;4870866;29;20244;-62
2022/04/25 08:51:35;;;;;;;5.20;2.70;;;15.30;99.90;;;;;;4863556;29;20270;-63
2022/04/25 08:54:06;;;;;;;5.20;2.43;;;15.30;99.90;;;;;;4871738;29;20297;-62
2022/04/25 08:56:35;;;;;;;4.53;3.00;;;15.50;99.90;;;;;;4869902;29;20297;-63
2022/04/25 08:59:06;;;;;;;5.03;3.03;;;15.50;99.90;;;;;;4873788;29;20274;-64
2022/04/25 09:01:35;;;;;;;4.53;2.77;;;15.40;99.90;;;;;;4868577;29;20270;-63
2022/04/25 09:04:05;;;;;;;6.27;3.43;;;15.50;99.90;;;;;;4866069;29;20293;-62
2022/04/25 09:06:34;;;;;;;3.37;2.53;;;15.60;99.90;;;;;;4859656;29;20246;-63
2022/04/25 09:09:02;;;;;;;7.80;2.90;;;15.90;99.90;;;;;;4843344;29;20318;-63
2022/04/25 09:14:17;;;;;;;4.43;2.60;;;15.70;99.90;;;;;;4872979;29;20298;-63
2022/04/25 09:16:46;;;;;;;3.83;3.20;;;16.00;99.90;;;;;;4857427;29;20327;-63
2022/04/25 09:19:15;;;;;;;4.20;2.67;;;15.90;99.90;;;;;;4842530;29;20244;-63
2022/04/25 09:21:45;;;;;;;5.20;3.07;;;16.30;99.90;;;;;;4847407;29;20326;-63
2022/04/25 09:24:21;;;;;;;5.17;3.40;;;16.50;99.90;;;;;;4856263;29;20261;-63
2022/04/25 09:26:52;;;;;;;6.53;3.50;;;16.40;99.90;;;;;;4846451;29;20243;-63
2022/04/25 09:29:27;;;;;;;4.63;3.47;;;16.70;99.90;;;;;;4842493;29;20299;-63
2022/04/25 09:31:56;;;;;;;5.17;3.60;;;16.70;99.90;;;;;;4850878;29;20261;-64
2022/04/25 09:37:11;;;;;;;4.90;3.37;;;16.80;99.90;;;;;;4844015;29;20267;-63
2022/04/25 09:39:39;;;;;;;5.53;3.23;;;17.00;99.90;;;;;;4853407;29;20263;-63
2022/04/25 09:42:09;;;;;;;3.97;2.80;;;17.00;99.90;;;;;;4858743;29;20326;-63
2022/04/25 09:44:55;;;;;;;5.93;2.83;;;16.90;99.90;;;;;;4845084;29;20235;-63
2022/04/25 09:47:28;;;;;;;3.40;2.73;;;16.90;99.90;;;;;;4852781;29;20337;-63
2022/04/25 09:50:02;;;;;;;4.43;2.90;;;16.60;99.90;;;;;;4854259;29;20330;-63
2022/04/25 09:52:31;;;;;;;5.53;3.27;;;16.90;99.90;;;;;;4848790;29;20333;-63
2022/04/25 09:55:12;;;;;;;6.50;3.13;;;16.90;99.90;;;;;;4857299;29;20325;-63
2022/04/25 09:57:41;;;;;;;4.53;3.53;;;16.70;99.90;;;;;;4849830;29;20258;-63
2022/04/25 10:00:10;;;;;;;5.70;2.37;;;16.90;99.90;;;;;;4856232;29;20250;-63
2022/04/25 10:02:41;;;;;;;4.53;3.00;;;17.00;99.90;;;;;;4840067;29;20719;-63
2022/04/25 10:05:17;;;;;;;4.17;3.00;;;17.20;99.90;;;;;;4855140;29;20251;-63
2022/04/25 10:07:45;;;;;;;3.93;2.67;;;17.40;99.90;;;;;;4839950;29;20704;-62
2022/04/25 10:10:13;;;;;;;5.70;3.27;;;17.60;99.90;;;;;;4858860;29;20254;-63
2022/04/25 10:12:42;;;;;;;4.40;2.83;;;17.90;99.90;;;;;;4870825;29;20243;-63
2022/04/25 10:15:10;;;;;;;3.50;2.50;;;17.90;99.90;;;;;;4861461;29;20246;-63
2022/04/25 10:17:39;;;;;;;4.90;2.80;;;17.90;99.90;;;;;;4866225;29;20242;-63
2022/04/25 10:20:09;;;;;;;2.97;2.23;;;17.70;99.90;;;;;;4866924;29;20660;-63
2022/04/25 10:22:39;;;;;;;4.20;2.33;;;17.80;99.90;;;;;;4860195;29;20712;-63
2022/04/25 10:25:08;;;;;;;2.93;2.30;;;17.60;99.90;;;;;;4872517;29;20261;-63
2022/04/25 10:27:39;;;;;;;2.97;2.60;;;17.60;99.90;;;;;;4862094;29;20257;-63
2022/04/25 10:30:11;;;;;;;3.37;2.57;;;17.70;99.90;;;;;;4871918;29;20299;-62
2022/04/25 10:32:40;;;;;;;3.17;2.63;;;18.00;99.90;;;;;;4866799;29;20297;-63
2022/04/25 10:35:14;;;;;;;4.10;2.97;;;17.70;99.90;;;;;;4880259;29;20707;-63
2022/04/25 10:37:44;;;;;;;3.80;2.80;;;17.70;99.90;;;;;;4875889;29;20245;-63
2022/04/25 10:44:09;;;;;;;3.97;3.07;;;17.90;99.90;;;;;;4871271;29;20254;-64
2022/04/25 10:47:09;;;;;;;4.00;2.20;;;18.50;99.90;;;;;;4834361;29;20653;-63
2022/04/25 10:49:38;;;;;;;2.43;2.23;;;18.10;99.90;;;;;;4862226;29;20242;-63
2022/04/25 10:52:27;;;;;;;4.13;2.70;;;18.00;99.90;;;;;;4863065;29;20247;-63
2022/04/25 10:55:12;;;;;;;3.67;2.30;;;18.20;99.90;;;;;;4871786;29;20247;-63
2022/04/25 10:58:12;;;;;;;3.20;2.47;;;18.50;99.90;;;;;;4868905;29;20247;-63
2022/04/25 11:00:51;;;;;;;3.10;2.63;;;18.70;99.90;;;;;;4865161;29;20292;-64
2022/04/25 11:03:25;;;;;;;4.70;2.63;;;18.10;99.90;;;;;;4871953;29;20280;-63
2022/04/25 11:05:55;;;;;;;2.90;2.57;;;18.10;99.90;;;;;;4872313;29;20326;-63
2022/04/25 11:08:24;;;;;;;4.17;2.33;;;18.00;99.90;;;;;;4878421;29;20262;-63
2022/04/25 11:11:05;;;;;;;6.00;2.57;;;18.30;99.90;;;;;;4872795;29;20317;-63
2022/04/25 11:13:35;;;;;;;4.73;2.90;;;19.00;99.90;;;;;;4866014;29;20337;-63
2022/04/25 11:16:19;;;;;;;4.27;2.43;;;18.80;99.90;;;;;;4873834;29;20248;-63
2022/04/25 11:19:07;;;;;;;5.67;2.53;;;18.80;99.90;;;;;;4875309;29;20243;-63
2022/04/25 11:21:36;;;;;;;3.60;2.63;;;18.40;99.90;;;;;;4877711;29;20340;-63
2022/04/25 11:24:25;;;;;;;2.73;2.13;;;18.20;99.90;;;;;;4871938;29;21353;-64
2022/04/25 11:27:00;;;;;;;3.10;2.30;;;18.50;99.90;;;;;;4874296;29;20259;-63
2022/04/25 11:29:28;;;;;;;3.53;2.60;;;18.50;99.90;;;;;;4875220;29;20330;-64
2022/04/25 11:32:25;;;;;;;3.50;2.80;;;18.60;99.90;;;;;;4867277;29;20267;-63
2022/04/25 11:34:58;;;;;;;2.67;2.00;;;19.10;99.90;;;;;;4867772;29;20251;-63
2022/04/25 11:37:28;;;;;;;3.23;2.40;;;19.20;99.90;;;;;;4875162;29;20318;-63
2022/04/25 11:40:02;;;;;;;3.27;2.50;;;19.20;99.90;;;;;;4877161;29;20242;-63
2022/04/25 11:42:34;;;;;;;3.40;2.17;;;19.20;99.90;;;;;;4876587;29;20243;-63
2022/04/25 11:45:03;;;;;;;4.00;2.47;;;19.50;99.90;;;;;;4870331;29;20327;-63
2022/04/25 11:47:32;;;;;;;2.90;2.60;;;19.20;99.90;;;;;;4870184;29;20336;-63
2022/04/25 11:50:02;;;;;;;3.50;2.50;;;19.00;99.90;;;;;;4876825;29;20249;-63
2022/04/25 11:52:30;;;;;;;5.00;2.53;;;19.20;99.90;;;;;;4871605;29;20249;-63
2022/04/25 11:55:00;;;;;;;2.40;2.13;;;18.60;99.90;;;;;;4865103;29;20245;-63
2022/04/25 11:57:28;;;;;;;3.90;2.63;;;18.50;99.90;;;;;;4860297;29;20241;-63
2022/04/25 12:00:12;;;;;;;2.93;2.20;;;18.20;99.90;;;;;;4869864;29;20240;-63
2022/04/25 12:02:41;;;;;;;4.13;2.83;;;18.30;99.90;;;;;;4865370;29;20333;-63
2022/04/25 12:05:10;;;;;;;2.50;2.30;;;18.30;99.90;;;;;;4869249;29;20740;-64
2022/04/25 12:15:34;;;;;;;3.23;2.40;;;18.30;99.90;;;;;;4860422;29;20769;-63
2022/04/25 12:16:05;;;;;;;5.37;2.53;;;17.50;99.90;;;;;;4863789;29;20642;-63
2022/04/25 12:18:33;;;;;;;4.53;2.33;;;17.70;99.90;;;;;;4870681;29;20242;-63
2022/04/25 12:21:04;;;;;;;5.37;2.60;;;17.80;99.90;;;;;;4872768;29;20311;-63
2022/04/25 12:23:34;;;;;;;4.20;2.43;;;17.80;99.90;;;;;;4867338;29;20242;-63
2022/04/25 12:26:06;;;;;;;3.77;2.37;;;17.60;99.90;;;;;;4872791;29;20261;-63
2022/04/25 12:28:37;;;;;;;3.40;2.20;;;17.60;99.90;;;;;;4875019;29;20305;-64
2022/04/25 12:31:09;;;;;;;3.10;2.23;;;17.60;99.90;;;;;;4868484;29;20585;-63
2022/04/25 12:33:40;;;;;;;2.60;2.30;;;17.60;99.90;;;;;;4864870;29;20600;-63
2022/04/25 12:36:14;;;;;;;2.70;1.90;;;17.40;99.90;;;;;;4870621;29;20731;-63
2022/04/25 12:38:45;;;;;;;2.77;2.20;;;17.60;99.90;;;;;;4873952;29;20242;-64
2022/04/25 12:41:21;;;;;;;5.37;2.33;;;17.60;99.90;;;;;;4859795;29;20323;-63
2022/04/25 12:43:51;;;;;;;3.83;2.70;;;17.80;99.90;;;;;;4865910;29;20274;-63
2022/04/25 12:46:37;;;;;;;3.80;2.20;;;17.80;99.90;;;;;;4870742;29;20249;-63
2022/04/25 12:49:07;;;;;;;3.50;2.20;;;17.50;99.90;;;;;;4869659;29;20246;-63
2022/04/25 12:51:41;;;;;;;2.57;2.20;;;17.50;99.90;;;;;;4863395;29;20603;-63
2022/04/25 12:54:21;;;;;;;3.47;1.93;;;17.60;99.90;;;;;;4871570;29;20655;-63
2022/04/25 12:56:50;;;;;;;3.10;2.00;;;17.80;99.90;;;;;;4866754;29;20324;-63
2022/04/25 12:59:26;;;;;;;2.50;2.30;;;17.80;99.90;;;;;;4869342;29;20253;-63
2022/04/25 13:02:07;;;;;;;2.50;2.30;;;17.80;99.90;;;;;;4864873;29;20294;-63
2022/04/25 13:04:50;;;;;;;3.70;2.20;;;17.70;99.90;;;;;;4861718;29;20239;-64
2022/04/25 13:07:18;;;;;;;2.67;2.00;;;17.70;99.90;;;;;;4861738;29;20247;-63
2022/04/25 13:09:47;;;;;;;3.07;1.90;;;17.60;99.90;;;;;;4868251;29;20333;-63
2022/04/25 13:12:19;;;;;;;2.50;2.10;;;17.50;99.90;;;;;;4867891;29;20234;-63
2022/04/25 13:14:47;;;;;;;2.90;2.30;;;17.70;99.90;;;;;;4870845;29;20714;-63
2022/04/25 13:17:17;;;;;;;2.43;2.23;;;17.60;99.90;;;;;;4871007;29;20240;-63
2022/04/25 13:19:45;;;;;;;3.13;2.10;;;17.50;99.90;;;;;;4871879;29;20660;-63
2022/04/25 13:22:13;;;;;;;2.70;2.20;;;17.40;99.90;;;;;;4871033;29;20243;-63
2022/04/25 13:24:43;;;;;;;3.73;2.20;;;17.40;99.90;;;;;;4867654;29;20309;-63
2022/04/25 13:27:11;;;;;;;3.13;2.20;;;17.50;99.90;;;;;;4860038;29;20246;-63
2022/04/25 13:29:39;;;;;;;2.93;1.93;;;17.40;99.90;;;;;;4867690;29;20260;-63
2022/04/25 13:32:10;;;;;;;2.40;1.90;;;17.40;99.90;;;;;;4871978;29;20241;-63
2022/04/25 13:34:39;;;;;;;2.23;1.93;;;17.60;99.90;;;;;;4860499;29;20234;-63
2022/04/25 13:37:07;;;;;;;4.03;2.03;;;17.60;99.90;;;;;;4873356;29;20276;-63
2022/04/25 13:39:35;;;;;;;6.37;2.17;;;17.60;99.90;;;;;;4876640;29;20598;-63
2022/04/25 13:42:04;;;;;;;2.70;2.20;;;17.60;99.90;;;;;;4863378;29;20337;-63
2022/04/25 13:44:32;;;;;;;2.80;2.47;;;17.50;99.90;;;;;;4863151;29;20250;-63
2022/04/25 13:47:01;;;;;;;2.90;2.60;;;17.30;99.90;;;;;;4867810;29;20259;-63
2022/04/25 13:49:30;;;;;;;3.50;2.80;;;17.30;99.90;;;;;;4875088;29;20708;-63
2022/04/25 13:52:02;;;;;;;2.43;2.00;;;17.20;99.90;;;;;;4866600;29;20247;-63